createdAt,value
2019-01-21T00:00:51.763Z,61.53
2019-01-21T00:03:40.363Z,59.00
2019-01-21T00:06:28.943Z,101.02
2019-01-21T00:09:17.870Z,71.10
2019-01-21T00:12:06.167Z,65.40
2019-01-21T00:14:55.350Z,66.82
2019-01-21T00:17:44.400Z,65.70
2019-01-21T00:20:33.153Z,69.30
2019-01-21T00:23:21.799Z,64.80
2019-01-21T00:26:10.233Z,65.92
2019-01-21T00:28:59.636Z,77.97
2019-01-21T00:31:48.695Z,100.27
2019-01-21T00:34:37.713Z,80.12
2019-01-21T00:37:26.375Z,85.05
2019-01-21T00:40:17.920Z,90.38
2019-01-21T00:43:07.006Z,89.00
2019-01-21T00:45:56.087Z,65.17
2019-01-21T00:48:44.962Z,83.82
2019-01-21T00:51:34.145Z,83.47
2019-01-21T00:54:23.189Z,92.97
2019-01-21T00:57:12.467Z,78.83
2019-01-21T01:00:01.674Z,72.25
2019-01-21T01:02:50.950Z,71.17
2019-01-21T01:05:40.218Z,71.40
2019-01-21T01:08:29.263Z,67.10
2019-01-21T01:11:18.210Z,62.43
2019-01-21T01:14:07.273Z,65.50
2019-01-21T01:16:56.144Z,72.42
2019-01-21T01:19:45.135Z,60.40
2019-01-21T01:22:34.164Z,80.53
2019-01-21T01:25:22.647Z,69.07
2019-01-21T01:28:11.647Z,63.35
2019-01-21T01:31:00.876Z,88.78
2019-01-21T01:33:49.967Z,84.72
2019-01-21T01:36:39.109Z,79.15
2019-01-21T01:39:27.939Z,71.95
2019-01-21T01:42:16.799Z,62.43
2019-01-21T01:45:09.979Z,63.68
2019-01-21T01:48:00.910Z,70.17
2019-01-21T01:50:50.346Z,64.80
2019-01-21T01:53:39.421Z,69.40
2019-01-21T01:56:28.650Z,68.05
2019-01-21T01:59:17.794Z,73.73
2019-01-21T02:02:06.722Z,67.70
2019-01-21T02:04:55.682Z,63.52
2019-01-21T02:07:44.815Z,67.72
2019-01-21T02:10:33.856Z,60.80
2019-01-21T02:13:22.643Z,70.47
2019-01-21T02:16:11.364Z,68.50
2019-01-21T02:19:00.307Z,73.30
2019-01-21T02:21:49.749Z,76.67
2019-01-21T02:24:40.311Z,56.28
2019-01-21T02:27:32.707Z,56.88
2019-01-21T02:30:43.880Z,70.78
2019-01-21T02:34:13.414Z,69.25
2019-01-21T02:37:31.754Z,66.75
2019-01-21T02:40:40.261Z,77.93
2019-01-21T02:43:45.417Z,70.03
2019-01-21T02:46:38.765Z,67.75
2019-01-21T02:49:57.391Z,59.95
2019-01-21T02:53:14.650Z,55.98
2019-01-21T02:56:35.899Z,72.00
2019-01-21T02:59:47.443Z,61.23
2019-01-21T03:03:01.836Z,66.85
2019-01-21T03:05:58.130Z,71.22
2019-01-21T03:09:18.771Z,61.88
2019-01-21T03:12:26.807Z,62.45
2019-01-21T03:15:54.430Z,63.85
2019-01-21T03:19:17.334Z,64.25
2019-01-21T03:22:22.452Z,58.23
2019-01-21T03:25:41.214Z,66.07
2019-01-21T03:28:46.024Z,58.52
2019-01-21T03:32:09.497Z,60.63
2019-01-21T03:35:11.517Z,63.13
2019-01-21T03:38:19.704Z,63.10
2019-01-21T03:41:15.418Z,64.05
2019-01-21T03:44:14.840Z,70.00
2019-01-21T03:47:29.545Z,63.02
2019-01-21T03:50:25.407Z,62.05
2019-01-21T03:53:33.302Z,62.30
2019-01-21T03:56:26.946Z,70.40
2019-01-21T03:59:35.902Z,73.25
2019-01-21T04:02:37.732Z,69.40
2019-01-21T04:05:42.369Z,68.15
2019-01-21T04:08:50.742Z,61.65
2019-01-21T04:12:00.493Z,64.53
2019-01-21T04:15:00.462Z,62.80
2019-01-21T04:18:08.599Z,62.90
2019-01-21T04:21:04.996Z,52.48
2019-01-21T04:24:16.267Z,65.08
2019-01-21T04:27:18.110Z,64.87
2019-01-21T04:30:41.507Z,63.30
2019-01-21T04:33:57.303Z,66.37
2019-01-21T04:37:11.060Z,63.33
2019-01-21T04:40:13.894Z,59.18
2019-01-21T04:43:37.098Z,65.32
2019-01-21T04:46:45.380Z,67.95
2019-01-21T04:49:59.916Z,64.55
2019-01-21T04:53:15.066Z,52.40
2019-01-21T04:56:26.652Z,52.78
2019-01-21T04:59:48.868Z,56.13
2019-01-21T05:03:11.141Z,63.75
2019-01-21T05:06:25.398Z,60.70
2019-01-21T05:09:27.271Z,60.95
2019-01-21T05:12:38.321Z,57.73
2019-01-21T05:15:54.226Z,60.50
2019-01-21T05:19:17.670Z,53.40
2019-01-21T05:22:26.173Z,53.95
2019-01-21T05:25:42.936Z,55.40
2019-01-21T05:28:45.439Z,57.10
2019-01-21T05:31:44.643Z,53.28
2019-01-21T05:34:37.932Z,50.95
2019-01-21T05:37:40.221Z,53.87
2019-01-21T05:40:36.955Z,56.65
2019-01-21T05:43:36.243Z,52.43
2019-01-21T05:47:08.354Z,50.95
2019-01-21T05:50:23.040Z,55.70
2019-01-21T05:53:34.631Z,51.45
2019-01-21T05:57:00.935Z,57.60
2019-01-21T06:00:03.372Z,48.42
2019-01-21T06:02:57.319Z,50.55
2019-01-21T06:05:59.701Z,51.48
2019-01-21T06:09:09.622Z,56.15
2019-01-21T06:12:18.532Z,55.48
2019-01-21T06:15:23.538Z,53.25
2019-01-21T06:18:34.619Z,55.10
2019-01-21T06:22:07.191Z,59.40
2019-01-21T06:25:03.145Z,48.17
2019-01-21T06:28:02.146Z,58.23
2019-01-21T06:31:12.568Z,49.18
2019-01-21T06:34:29.558Z,46.40
2019-01-21T06:37:35.492Z,56.37
2019-01-21T06:40:54.526Z,52.25
2019-01-21T06:43:56.834Z,59.40
2019-01-21T06:47:05.026Z,51.80
2019-01-21T06:50:12.190Z,46.15
2019-01-21T06:53:25.933Z,50.67
2019-01-21T06:56:37.243Z,49.35
2019-01-21T06:59:48.809Z,56.65
2019-01-21T07:03:22.468Z,57.38
2019-01-21T07:06:24.851Z,57.88
2019-01-21T07:09:51.293Z,55.33
2019-01-21T07:12:50.294Z,64.62
2019-01-21T07:15:58.432Z,59.95
2019-01-21T07:19:24.468Z,56.88
2019-01-21T07:22:41.635Z,55.08
2019-01-21T07:25:41.232Z,51.05
2019-01-21T07:28:55.717Z,55.60
2019-01-21T07:31:57.993Z,58.75
2019-01-21T07:35:09.458Z,55.65
2019-01-21T07:38:20.273Z,57.38
2019-01-21T07:41:22.467Z,57.70
2019-01-21T07:44:37.121Z,51.92
2019-01-21T07:48:06.460Z,58.45
2019-01-21T07:51:11.951Z,64.27
2019-01-21T07:54:10.837Z,52.20
2019-01-21T07:57:19.299Z,54.27
2019-01-21T08:00:12.884Z,53.00
2019-01-21T08:03:18.555Z,53.15
2019-01-21T08:06:20.833Z,50.78
2019-01-21T08:09:44.854Z,46.65
2019-01-21T08:13:15.721Z,60.98
2019-01-21T08:16:28.429Z,57.90
2019-01-21T08:19:33.930Z,62.20
2019-01-21T08:22:48.525Z,61.73
2019-01-21T08:26:13.678Z,51.90
2019-01-21T08:29:18.899Z,51.08
2019-01-21T08:32:17.571Z,52.03
2019-01-21T08:35:31.770Z,55.12
2019-01-21T08:38:40.472Z,50.52
2019-01-21T08:42:08.020Z,49.30
2019-01-21T08:45:18.715Z,55.98
2019-01-21T08:48:30.319Z,50.95
2019-01-21T08:51:29.443Z,57.95
2019-01-21T08:54:48.248Z,53.87
2019-01-21T08:57:47.520Z,50.95
2019-01-21T09:01:06.132Z,50.90
2019-01-21T09:04:06.102Z,61.55
2019-01-21T09:07:20.060Z,55.63
2019-01-21T09:10:19.224Z,50.80
2019-01-21T09:13:40.633Z,51.85
2019-01-21T09:16:45.553Z,52.98
2019-01-21T09:19:55.996Z,51.92
2019-01-21T09:23:17.632Z,49.75
2019-01-21T09:26:25.434Z,47.00
2019-01-21T09:29:27.638Z,44.42
2019-01-21T09:32:41.708Z,46.73
2019-01-21T09:36:04.081Z,47.95
2019-01-21T09:38:57.617Z,50.55
2019-01-21T09:42:02.768Z,49.75
2019-01-21T09:45:14.104Z,47.93
2019-01-21T09:48:01.155Z,42.53
2019-01-21T09:50:50.424Z,50.90
2019-01-21T09:53:40.021Z,42.88
2019-01-21T09:56:31.343Z,45.40
2019-01-21T09:59:22.601Z,46.70
2019-01-21T10:02:11.533Z,47.90
2019-01-21T10:05:02.501Z,40.78
2019-01-21T10:08:15.486Z,46.23
2019-01-21T10:11:15.138Z,46.28
2019-01-21T10:14:30.890Z,43.78
2019-01-21T10:17:36.293Z,47.83
2019-01-21T10:20:51.045Z,44.13
2019-01-21T10:24:02.682Z,43.30
2019-01-21T10:27:04.279Z,49.75
2019-01-21T10:30:06.823Z,43.85
2019-01-21T10:33:44.524Z,49.53
2019-01-21T10:37:16.084Z,44.58
2019-01-21T10:40:27.701Z,42.10
2019-01-21T10:43:38.815Z,48.85
2019-01-21T10:46:43.808Z,48.20
2019-01-21T10:49:57.252Z,60.23
2019-01-21T10:53:07.998Z,47.90
2019-01-21T10:56:28.320Z,45.20
2019-01-21T10:59:24.238Z,45.98
2019-01-21T11:02:23.323Z,43.55
2019-01-21T11:05:34.194Z,52.05
2019-01-21T11:08:51.426Z,45.03
2019-01-21T11:11:45.081Z,41.02
2019-01-21T11:14:56.568Z,45.35
2019-01-21T11:18:13.073Z,43.02
2019-01-21T11:21:21.411Z,39.78
2019-01-21T11:24:29.840Z,45.90
2019-01-21T11:27:51.747Z,41.28
2019-01-21T11:31:27.366Z,42.15
2019-01-21T11:34:35.812Z,40.23
2019-01-21T11:37:32.610Z,40.48
2019-01-21T11:40:48.577Z,45.12
2019-01-21T11:43:44.506Z,36.30
2019-01-21T11:46:52.428Z,38.90
2019-01-21T11:50:17.424Z,38.88
2019-01-21T11:53:31.693Z,38.23
2019-01-21T11:56:51.046Z,39.27
2019-01-21T11:59:59.581Z,36.80
2019-01-21T12:03:01.948Z,45.03
2019-01-21T12:05:54.448Z,35.92
2019-01-21T12:09:03.793Z,33.95
2019-01-21T12:12:02.735Z,41.75
2019-01-21T12:14:58.773Z,35.63
2019-01-21T12:18:13.065Z,36.68
2019-01-21T12:21:18.525Z,40.95
2019-01-21T12:24:14.669Z,34.15
2019-01-21T12:27:33.636Z,35.38
2019-01-21T12:30:45.201Z,38.63
2019-01-21T12:34:00.222Z,34.27
2019-01-21T12:36:56.960Z,38.95
2019-01-21T12:40:23.643Z,34.35
2019-01-21T12:43:22.959Z,35.85
2019-01-21T12:46:22.275Z,37.20
2019-01-21T12:49:36.517Z,29.15
2019-01-21T12:52:35.680Z,31.23
2019-01-21T12:55:55.317Z,33.05
2019-01-21T12:59:03.687Z,32.98
2019-01-21T13:16:55.424Z,30.37
2019-01-21T13:20:30.440Z,35.95
2019-01-21T13:23:23.163Z,36.40
2019-01-21T13:26:16.513Z,39.50
2019-01-21T13:29:21.046Z,36.83
2019-01-21T13:32:29.912Z,35.55
2019-01-21T13:35:28.683Z,48.30
2019-01-21T13:38:46.403Z,35.38
2019-01-21T13:41:48.401Z,32.65
2019-01-21T13:45:02.781Z,34.85
2019-01-21T13:48:02.020Z,35.50
2019-01-21T13:51:07.048Z,34.78
2019-01-21T13:54:03.816Z,37.88
2019-01-21T13:57:17.119Z,34.70
2019-01-21T14:00:21.700Z,37.05
2019-01-21T14:03:20.512Z,32.40
2019-01-21T14:06:26.243Z,41.30
2019-01-21T14:09:55.795Z,34.25
2019-01-21T14:13:00.451Z,35.80
2019-01-21T14:16:08.407Z,36.70
2019-01-21T14:19:11.022Z,39.42
2019-01-21T14:22:19.776Z,42.45
2019-01-21T14:25:38.613Z,36.85
2019-01-21T14:28:56.102Z,36.05
2019-01-21T14:32:09.645Z,35.68
2019-01-21T14:35:08.458Z,31.25
2019-01-21T14:38:10.291Z,35.28
2019-01-21T14:41:17.805Z,35.60
2019-01-21T14:44:34.204Z,34.00
2019-01-21T14:47:56.529Z,36.45
2019-01-21T14:51:07.252Z,35.20
2019-01-21T14:54:12.699Z,38.55
2019-01-21T14:57:26.337Z,43.52
2019-01-21T15:00:51.031Z,39.92
2019-01-21T15:03:53.600Z,40.45
2019-01-21T15:06:52.710Z,40.25
2019-01-21T15:10:17.987Z,39.60
2019-01-21T15:13:19.733Z,45.75
2019-01-21T15:16:21.706Z,39.20
2019-01-21T15:19:18.851Z,37.25
2019-01-21T15:22:32.859Z,35.43
2019-01-21T15:25:37.537Z,38.02
2019-01-21T15:28:37.223Z,39.70
2019-01-21T15:31:42.746Z,41.23
2019-01-21T15:34:58.322Z,39.23
2019-01-21T15:38:19.133Z,47.08
2019-01-21T15:41:13.115Z,36.33
2019-01-21T15:44:13.319Z,37.03
2019-01-21T15:47:15.768Z,45.12
2019-01-21T15:50:28.979Z,38.58
2019-01-21T15:53:31.133Z,37.67
2019-01-21T15:56:42.354Z,37.17
2019-01-21T15:59:53.983Z,34.92
2019-01-21T16:03:10.516Z,40.38
2019-01-21T16:06:30.980Z,50.95
2019-01-21T16:09:45.865Z,34.48
2019-01-21T16:12:45.358Z,38.00
2019-01-21T16:15:53.338Z,45.33
2019-01-21T16:18:56.128Z,33.48
2019-01-21T16:21:55.666Z,44.85
2019-01-21T16:25:20.497Z,36.05
2019-01-21T16:28:25.505Z,34.48
2019-01-21T16:31:21.432Z,35.08
2019-01-21T16:34:39.249Z,50.33
2019-01-21T16:37:46.959Z,31.85
2019-01-21T16:40:49.172Z,39.85
2019-01-21T16:43:37.759Z,38.83
2019-01-21T16:46:26.392Z,32.13
2019-01-21T16:49:15.381Z,37.42
2019-01-21T16:52:04.095Z,36.50
2019-01-21T16:54:52.901Z,34.60
2019-01-21T16:57:41.346Z,35.35
2019-01-21T17:00:29.715Z,33.98
2019-01-21T17:03:18.860Z,32.67
2019-01-21T17:06:07.946Z,38.30
2019-01-21T17:08:56.693Z,40.20
2019-01-21T17:11:45.666Z,32.50
2019-01-21T17:14:34.747Z,34.25
2019-01-21T17:17:23.298Z,36.45
2019-01-21T17:20:19.983Z,42.17
2019-01-21T17:23:08.652Z,40.38
2019-01-21T17:25:57.868Z,36.53
2019-01-21T17:28:46.700Z,37.55
2019-01-21T17:31:36.109Z,35.73
2019-01-21T17:34:24.842Z,36.10
2019-01-21T17:37:14.041Z,40.43
2019-01-21T17:40:04.604Z,52.45
2019-01-21T17:42:53.440Z,40.15
2019-01-21T17:45:42.589Z,35.33
2019-01-21T17:48:31.976Z,33.08
2019-01-21T17:51:22.360Z,39.00
2019-01-21T17:54:11.266Z,36.20
2019-01-21T17:57:00.385Z,35.28
2019-01-21T17:59:49.192Z,38.50
2019-01-21T18:02:38.171Z,33.50
2019-01-21T18:05:26.810Z,33.60
2019-01-21T19:40:47.608Z,54.50
2019-01-21T19:43:36.612Z,54.13
2019-01-21T19:46:25.572Z,49.88
2019-01-21T19:49:14.690Z,42.23
2019-01-21T19:52:03.674Z,37.60
2019-01-21T19:54:52.417Z,38.60
2019-01-21T19:57:41.354Z,40.45
2019-01-21T20:00:30.111Z,49.40
2019-01-21T20:03:18.668Z,48.15
2019-01-21T20:06:07.013Z,40.28
2019-01-21T20:08:56.195Z,33.50
2019-01-21T20:11:45.549Z,43.25
2019-01-21T20:14:34.722Z,40.73
2019-01-21T20:17:23.135Z,38.75
2019-01-21T20:20:19.050Z,43.75
2019-01-21T20:23:07.813Z,40.30
2019-01-21T20:25:56.552Z,42.93
2019-01-21T20:28:45.123Z,39.18
2019-01-21T20:31:34.364Z,41.68
2019-01-21T20:34:23.647Z,37.48
2019-01-21T20:37:12.593Z,42.08
2019-01-21T20:40:01.329Z,53.17
2019-01-21T20:42:50.256Z,44.60
2019-01-21T20:45:39.061Z,41.13
2019-01-21T20:48:27.816Z,42.88
2019-01-21T20:51:16.220Z,48.28
2019-01-21T20:54:06.335Z,40.38
2019-01-21T20:56:54.900Z,48.25
2019-01-21T20:59:43.836Z,42.40
2019-01-21T21:02:33.178Z,43.90
2019-01-21T21:05:22.597Z,44.25
2019-01-21T21:08:11.666Z,43.58
2019-01-21T21:11:00.718Z,48.83
2019-01-21T21:13:49.586Z,44.83
2019-01-21T21:16:38.807Z,43.70
2019-01-21T21:19:27.111Z,45.80
2019-01-21T21:22:21.036Z,51.15
2019-01-21T21:25:10.591Z,46.83
2019-01-21T21:27:59.558Z,44.98
2019-01-21T21:30:48.562Z,49.25
2019-01-21T21:33:37.393Z,50.35
2019-01-21T21:36:26.162Z,44.55
2019-01-21T21:39:14.783Z,52.15
2019-01-21T21:42:03.574Z,49.03
2019-01-21T21:44:52.105Z,47.58
2019-01-21T21:47:40.828Z,49.55
2019-01-21T21:50:31.769Z,54.93
2019-01-21T21:53:20.633Z,52.48
2019-01-21T21:56:10.411Z,44.43
2019-01-21T21:58:59.301Z,56.00
2019-01-21T22:01:48.739Z,52.90
2019-01-21T22:04:37.608Z,52.03
2019-01-21T22:07:27.114Z,48.45
2019-01-21T22:10:23.403Z,54.55
2019-01-21T22:13:12.775Z,58.95
2019-01-21T22:18:50.572Z,58.85
2019-01-21T22:21:39.441Z,62.70
2019-01-21T22:24:28.750Z,63.65
2019-01-21T22:30:18.600Z,55.10
2019-01-21T22:33:07.911Z,56.83
2019-01-21T22:35:56.787Z,60.65
2019-01-21T22:38:46.579Z,66.17
2019-01-21T22:41:35.455Z,55.35
2019-01-21T22:44:24.535Z,64.53
2019-01-21T22:47:15.282Z,66.63
2019-01-21T22:50:08.099Z,71.80
2019-01-21T22:52:57.066Z,69.32
2019-01-21T22:55:46.192Z,74.47
2019-01-21T22:58:35.521Z,80.80
2019-01-21T23:04:12.477Z,77.35
2019-01-21T23:21:02.947Z,69.25
2019-01-21T23:23:51.876Z,77.17
2019-01-21T23:26:40.499Z,97.10
2019-01-21T23:29:28.907Z,68.80
2019-01-21T23:32:18.064Z,90.50
2019-01-21T23:35:07.233Z,71.07
2019-01-21T23:37:55.799Z,73.05
2019-01-21T23:40:45.208Z,81.17
2019-01-21T23:43:34.193Z,78.70
2019-01-21T23:46:23.273Z,66.70
2019-01-21T23:49:12.273Z,68.50
2019-01-21T23:52:01.030Z,70.57
2019-01-21T23:54:49.726Z,65.00
2019-01-21T23:57:38.538Z,84.40
